LEMGLERT [41927]

Details From LEMG - Malaga
To LERT - Rota Ns
Flight Number 41927
Tags Routegen Commercial Generated
Created
Modified
Stats Distance 90 nm / 166 km
Max Altitude 0 ft / 0 m
Waypoints 2
Social Downloads 21
Likes 0
Share VATSIM

Download

Looking for another format? Having issues loading an existing format? Contact us
Advertisement - Login to hide

Notes

Generated

Route

LEMG LERT

ID Type Via Altitude Latitude Longitude Leg Dist Tot Dist Heading (true) Name
O LEMG APT - 0 ft / 0 m 36.68453˚ -4.51259˚ - 0 nm - -
O LERT APT - 0 ft / 0 m 36.64721˚ -6.36996˚ 89 nm 89 nm 269° / 268° -

Altitude Profile

Advertisement - Login to hide

LEMG

Details ICAO LEMG (AGP)
Name Malaga
Region Spain
Timezone Europe/Madrid (UTC+1.0)
Stats Elevation 52 ft / 16 m (AMSL)
Location 36.679780° -4.495899°
Runways 2
Magnetic Variation 0.876° W

METAR

LEMG 181500Z 14006KT 9999 FEW020 15/08 Q1028 NOSIG

Decode

TAF

TAF LEMG 181100Z 1812/1912 30005KT CAVOK TX16/1814Z TN09/1907Z BECMG 1812/1814 13006KT BECMG 1819/1821 30012KT

Decode

Departure Runways

ID Width Length Bearing (true) Bearing (mag) Surface Threshold Offset Overrun Length
12 148 ft / 45 m 10,057 ft / 3,065 m 117.76° 118.64° Asphalt 0 ft / 0 m 650 ft / 198 m
13 148 ft / 45 m 10,509 ft / 3,203 m 131.69° 132.57° Asphalt 0 ft / 0 m 246 ft / 75 m
30 148 ft / 45 m 10,057 ft / 3,065 m 297.78° 298.66° Asphalt 1,115 ft / 340 m 466 ft / 142 m
31 148 ft / 45 m 10,509 ft / 3,203 m 311.70° 312.58° Asphalt 0 ft / 0 m 246 ft / 75 m

LERT

Details ICAO LERT
Name Rota Ns
Region Spain
Timezone Europe/Madrid (UTC+1.0)
Stats Elevation 86 ft / 26 m (AMSL)
Location 36.645212° -6.349479°
Runways 1
Magnetic Variation 1.424° W

METAR

LERT 181500Z 03010KT 360V060 CAVOK 14/05 Q1028 NOSIG

Decode

TAF

Not found

Destination Runways

ID Width Length Bearing (true) Bearing (mag) Surface Threshold Offset Overrun Length
10 200 ft / 61 m 12,080 ft / 3,682 m 96.91° 98.33° Asphalt 0 ft / 0 m 148 ft / 45 m
28 200 ft / 61 m 12,080 ft / 3,682 m 276.93° 278.35° Asphalt 0 ft / 0 m 148 ft / 45 m

Approach Navaids

Runway Type Ident Frequency Range Bearing (true) Bearing (mag) Slope Elevation
10 Localiser IAOG 108.70 MHz 18 nm / 33 km 96.96° 98.38° - 86 ft / 26 m (AMSL)
10 Glidescope IAOG 108.70 MHz 10 nm / 19 km 96.92° 98.34° 3.00° 86 ft / 26 m (AMSL)